METAR Data
IDs: Format: Raw Decoded Include TAF

Data at: 1031 UTC 26 Sep 2018

KMGR 261015Z AUTO 00000KT 10SM CLR 23/21 A3010 RMK AO2
KMGR 260955Z AUTO 13003KT 10SM CLR 23/22 A3009 RMK AO2 LTG DSNT NE AND W
KMGR 260935Z AUTO 00000KT 10SM CLR 22/21 A3009 RMK AO2
KMGR 260915Z AUTO 00000KT 10SM CLR 22/21 A3009 RMK AO2 LTG DSNT SW
KMGR 260855Z AUTO 00000KT 10SM CLR 23/22 A3010 RMK AO2 LTG DSNT W
KMGR 260835Z AUTO 00000KT 10SM CLR 23/22 A3010 RMK AO2 LTG DSNT NE
KMGR 260815Z AUTO 00000KT 10SM SCT048 SCT060 23/22 A3010 RMK AO2
KMGR 260755Z AUTO 00000KT 10SM SCT046 SCT050 SCT070 23/22 A3011 RMK AO2
KMGR 260735Z AUTO 00000KT 10SM SCT050 SCT070 23/22 A3011 RMK AO2
KMGR 260715Z AUTO 00000KT 10SM SCT060 23/22 A3011 RMK AO2
KMGR 260655Z AUTO 00000KT 10SM CLR 23/22 A3011 RMK AO2 LTG DSNT W
KMGR 260635Z AUTO 00000KT 10SM SCT065 23/22 A3012 RMK AO2
KMGR 260615Z AUTO 00000KT 10SM SCT055 SCT065 23/22 A3012 RMK AO2
KMGR 260555Z AUTO 00000KT 10SM SCT041 SCT048 BKN055 24/22 A3013 RMK AO2
KMGR 260535Z AUTO 00000KT 10SM SCT032 BKN041 23/22 A3013 RMK AO2
KMGR 260515Z AUTO 00000KT 10SM SCT032 SCT043 23/22 A3014 RMK AO2
KMGR 260455Z AUTO 00000KT 10SM SCT039 23/22 A3013 RMK AO2 LTG DSNT S
KMGR 260435Z AUTO 00000KT 10SM SCT037 23/22 A3013 RMK AO2
KMGR 260415Z AUTO 00000KT 10SM SCT047 SCT050 23/22 A3013 RMK AO2
KMGR 260355Z AUTO 00000KT 10SM SCT043 SCT050 24/22 A3013 RMK AO2
KMGR 260335Z AUTO 00000KT 10SM CLR 23/21 A3013 RMK AO2
KMGR 260315Z AUTO 00000KT 10SM CLR 23/21 A3013 RMK AO2
KMGR 260255Z AUTO 00000KT 10SM CLR 23/21 A3013 RMK AO2
KMGR 260235Z AUTO 00000KT 10SM SCT050 24/22 A3012 RMK AO2
KMGR 260215Z AUTO 00000KT 10SM SCT050 24/22 A3011 RMK AO2
KMGR 260155Z AUTO 00000KT 10SM CLR 25/22 A3011 RMK AO2
KMGR 260135Z AUTO 00000KT 10SM CLR 25/22 A3011 RMK AO2
KMGR 260115Z AUTO 00000KT 10SM CLR 25/22 A3010 RMK AO2
KMGR 260055Z AUTO 00000KT 10SM CLR 25/22 A3009 RMK AO2
KMGR 260035Z AUTO 00000KT 10SM CLR 25/22 A3009 RMK AO2
KMGR 260015Z AUTO 00000KT 10SM CLR 25/22 A3008 RMK AO2
KMGR 252355Z AUTO 00000KT 10SM CLR 25/22 A3008 RMK AO2
KMGR 252335Z AUTO 30003KT 10SM CLR 26/22 A3008 RMK AO2
KMGR 252315Z AUTO 00000KT 10SM CLR 26/22 A3007 RMK AO2
KMGR 252255Z AUTO 26009KT 10SM SCT060 28/22 A3008 RMK AO2 LTG DSNT NW
KMGR 252235Z AUTO 00000KT 10SM VCTS CLR 30/21 A3007 RMK AO2 LTG DSNT SW AND W
KMGR 252215Z AUTO 00000KT 10SM CLR 31/21 A3006 RMK AO2
KMGR 252155Z AUTO 17003KT 10SM CLR 32/20 A3006 RMK AO2 LTG DSNT NW
KMGR 252135Z AUTO 16003KT 10SM CLR 32/20 A3006 RMK AO2
KMGR 252115Z AUTO 15005KT 10SM CLR 32/20 A3006 RMK AO2 LTG DSNT W
KMGR 252055Z AUTO 18004KT 10SM CLR 32/21 A3006 RMK AO2 LTG DSNT W AND NW
KMGR 252035Z AUTO 16004KT 10SM CLR 32/21 A3007 RMK AO2 LTG DSNT W AND NW
KMGR 252015Z AUTO 15004KT 10SM VCTS CLR 32/20 A3007 RMK AO2 LTG DSNT W
KMGR 251955Z AUTO 13007KT 077V147 10SM CLR 32/21 A3007 RMK AO2 LTG DSNT W
KMGR 251935Z AUTO 14005KT 10SM CLR 32/21 A3008 RMK AO2 LTG DSNT SW AND W
KMGR 251915Z AUTO 15005KT 10SM CLR 32/21 A3009 RMK AO2 LTG DSNT W
KMGR 251855Z AUTO 07004KT 10SM SCT041 SCT048 31/21 A3010 RMK AO2 LTG DSNT W
KMGR 251835Z AUTO 10005KT 10SM SCT040 32/21 A3010 RMK AO2 LTG DSNT SW AND W
KMGR 251815Z AUTO 15005KT 10SM SCT040 SCT046 31/21 A3011 RMK AO2
KMGR 251755Z AUTO 08004KT 10SM CLR 31/21 A3012 RMK AO2 LTG DSNT SW
KMGR 251735Z AUTO 00000KT 10SM CLR 31/20 A3013 RMK AO2 LTG DSNT SW
KMGR 251715Z AUTO 00000KT 10SM SCT035 SCT050 30/21 A3013 RMK AO2 LTG DSNT SW
KMGR 251655Z AUTO 17006KT 10SM CLR 31/21 A3014 RMK AO2 LTG DSNT SW
KMGR 251635Z AUTO 16004KT 10SM SCT030 30/21 A3015 RMK AO2 LTG DSNT SW
KMGR 251615Z AUTO 14003KT 10SM SCT030 29/21 A3015 RMK AO2 LTG DSNT SW
KMGR 251555Z AUTO 16007KT 10SM SCT028 SCT032 30/22 A3016 RMK AO2
KMGR 251535Z AUTO 18004KT 10SM CLR 29/22 A3016 RMK AO2 LTG DSNT W
KMGR 251515Z AUTO 14004KT 10SM SCT018 SCT025 28/22 A3016 RMK AO2 LTG DSNT E
KMGR 251455Z AUTO 13006KT 10SM SCT016 SCT023 27/22 A3016 RMK AO2 LTG DSNT W
KMGR 251435Z AUTO 12005KT 10SM SCT014 SCT023 27/23 A3016 RMK AO2
KMGR 251415Z AUTO 11005KT 10SM CLR 27/23 A3016 RMK AO2
KMGR 251355Z AUTO 12004KT 10SM CLR 26/23 A3016 RMK AO2
KMGR 251335Z AUTO 13003KT 10SM CLR 25/23 A3016 RMK AO2 LTG DSNT W
KMGR 251315Z AUTO 12003KT 10SM CLR 25/22 A3015 RMK AO2 LTG DSNT SW
KMGR 251255Z AUTO 11004KT 10SM CLR 24/22 A3015 RMK AO2
KMGR 251235Z AUTO 00000KT 7SM CLR 23/22 A3014 RMK AO2 LTG DSNT SW
KMGR 251215Z AUTO 09003KT 7SM CLR 22/22 A3014 RMK AO2
KMGR 251155Z AUTO 00000KT 7SM CLR 22/22 A3014 RMK AO2
KMGR 251135Z AUTO 00000KT 7SM CLR 22/21 A3013 RMK AO2
KMGR 251115Z AUTO 00000KT 7SM CLR 22/21 A3012 RMK AO2
KMGR 251055Z AUTO 00000KT 7SM CLR 22/21 A3012 RMK AO2
KMGR 251035Z AUTO 00000KT 7SM CLR 22/21 A3011 RMK AO2
KMGR 251015Z AUTO 00000KT 7SM CLR 22/21 A3011 RMK AO2
KMGR 250955Z AUTO 00000KT 7SM CLR 22/22 A3011 RMK AO2 LTG DSNT W
KMGR 250935Z AUTO 00000KT 7SM CLR 22/22 A3010 RMK AO2
KMGR 250915Z AUTO 00000KT 7SM CLR 22/22 A3010 RMK AO2 LTG DSNT W
KMGR 250855Z AUTO 00000KT 10SM CLR 22/22 A3010 RMK AO2
KMGR 250835Z AUTO 00000KT 10SM CLR 23/22 A3010 RMK AO2
KMGR 250815Z AUTO 00000KT 10SM CLR 23/22 A3010 RMK AO2
KMGR 250755Z AUTO 00000KT 10SM CLR 23/22 A3009 RMK AO2
KMGR 250735Z AUTO 00000KT 10SM CLR 23/22 A3010 RMK AO2
KMGR 250715Z AUTO 00000KT 10SM CLR 23/22 A3010 RMK AO2
KMGR 250655Z AUTO 00000KT 10SM CLR 23/22 A3011 RMK AO2
KMGR 250635Z AUTO 00000KT 10SM CLR 23/22 A3011 RMK AO2
KMGR 250615Z AUTO 00000KT 10SM CLR 23/22 A3011 RMK AO2
KMGR 250555Z AUTO 00000KT 10SM CLR 23/22 A3012 RMK AO2
KMGR 250535Z AUTO 00000KT 10SM CLR 24/22 A3012 RMK AO2
KMGR 250515Z AUTO 00000KT 10SM CLR 24/22 A3012 RMK AO2
KMGR 250455Z AUTO 00000KT 10SM CLR 24/22 A3012 RMK AO2
KMGR 250435Z AUTO 00000KT 10SM CLR 25/22 A3012 RMK AO2
KMGR 250415Z AUTO 09003KT 10SM CLR 25/22 A3012 RMK AO2
KMGR 250355Z AUTO 11003KT 10SM CLR 25/22 A3011 RMK AO2
KMGR 250335Z AUTO 09003KT 10SM CLR 25/22 A3011 RMK AO2
KMGR 250315Z AUTO 10003KT 10SM CLR 25/22 A3011 RMK AO2
KMGR 250255Z AUTO 00000KT 10SM CLR 25/22 A3011 RMK AO2
KMGR 250235Z AUTO 00000KT 10SM SCT036 SCT043 SCT049 25/22 A3010 RMK AO2
KMGR 250215Z AUTO 00000KT 10SM SCT036 SCT043 24/22 A3010 RMK AO2
KMGR 250155Z AUTO 00000KT 10SM SCT036 24/22 A3010 RMK AO2
KMGR 250135Z AUTO 00000KT 10SM CLR 25/22 A3010 RMK AO2
KMGR 250115Z AUTO 00000KT 10SM CLR 25/23 A3008 RMK AO2
KMGR 250055Z AUTO 00000KT 10SM CLR 25/23 A3007 RMK AO2
KMGR 250035Z AUTO 00000KT 10SM SCT019 SCT049 SCT065 25/22 A3008 RMK AO2
KMGR 250015Z AUTO 14007G15KT 10SM RA SCT060 SCT110 27/22 A3007 RMK AO2 LTG DSNT W
KMGR 242355Z AUTO 15005KT 10SM SCT060 28/22 A3006 RMK AO2
KMGR 242335Z AUTO 14005KT 10SM SCT049 SCT060 28/21 A3006 RMK AO2
KMGR 242315Z AUTO 13005KT 10SM SCT049 SCT055 SCT070 29/21 A3005 RMK AO2
KMGR 242255Z AUTO 11005KT 10SM CLR 30/21 A3004 RMK AO2 LTG DSNT W
KMGR 242235Z AUTO 11003KT 10SM CLR 32/19 A3003 RMK AO2